METAR Data
IDs: Format: Raw Decoded Include TAF

Data at: 0919 UTC 17 Feb 2019

LTAF 170850Z 04008KT 360V080 9999 FEW035 16/01 Q1020 NOSIG RMK RWY23 02007KT 360V060